Time;durP1;ratioP1;P1;durP2;ratioP2;P2;SDS_P1;SDS_P2;PMS_P1;PMS_P2;Temp;Humidity;BMP_temperature;BMP_pressure;BME280_temperature;BME280_humidity;BME280_pressure;Samples;Min_cycle;Max_cycle;Signal;HPM_P1;HPM_P2
2022/08/04 00:00:09;;;;;;;10.70;4.95;;;;;;;24.21;59.96;100650.03;5016012;28;20547;-81
2022/08/04 00:02:58;;;;;;;9.85;5.45;;;;;;;24.19;59.80;100652.97;5015701;28;20022;-82
2022/08/04 00:05:45;;;;;;;15.02;5.10;;;;;;;24.22;59.88;100652.56;5015775;28;20048;-82
2022/08/04 00:08:39;;;;;;;9.90;4.68;;;;;;;24.14;59.72;100646.44;5015761;28;20064;-82
2022/08/04 00:11:07;;;;;;;8.00;4.22;;;;;;;24.17;59.56;100646.00;4997637;28;20466;-82
2022/08/04 00:13:38;;;;;;;10.57;4.35;;;;;;;24.10;58.99;100632.25;5016223;28;20057;-83
2022/08/04 00:16:06;;;;;;;13.75;4.32;;;;;;;24.16;58.51;100647.06;5015437;28;20026;-82
2022/08/04 00:18:43;;;;;;;8.65;3.85;;;;;;;24.15;58.68;100648.16;4997423;28;20435;-81
2022/08/04 00:21:12;;;;;;;9.60;3.65;;;;;;;24.17;58.62;100648.75;5014983;28;20377;-82
2022/08/04 00:23:41;;;;;;;7.43;4.43;;;;;;;24.20;58.30;100659.34;5015377;28;20022;-81
2022/08/04 00:26:08;;;;;;;8.40;4.32;;;;;;;24.09;58.35;100662.69;5015795;28;20073;-82
2022/08/04 00:28:37;;;;;;;6.60;3.88;;;;;;;24.08;58.82;100663.75;5016253;28;20028;-83
2022/08/04 00:31:03;;;;;;;11.80;3.78;;;;;;;24.12;58.68;100673.31;5015746;28;20100;-81
2022/08/04 00:33:29;;;;;;;18.60;4.68;;;;;;;24.03;58.95;100680.03;5015022;28;20115;-82
2022/08/04 00:35:56;;;;;;;8.45;4.50;;;;;;;23.97;59.43;100673.47;4997089;28;20556;-83
2022/08/04 00:38:23;;;;;;;21.58;4.82;;;;;;;23.94;59.36;100664.81;5016217;28;20501;-83
2022/08/04 00:40:54;;;;;;;10.70;4.43;;;;;;;23.99;59.56;100673.25;5014970;28;20018;-83
2022/08/04 00:43:33;;;;;;;8.43;4.63;;;;;;;24.02;59.62;100668.19;5015046;28;20087;-83
2022/08/04 00:46:35;;;;;;;11.35;5.15;;;;;;;23.99;59.97;100674.09;5014915;28;20400;-82
2022/08/04 00:49:14;;;;;;;12.15;5.05;;;;;;;24.00;59.86;100663.97;5014397;28;20014;-82
2022/08/04 00:51:45;;;;;;;10.95;6.18;;;;;;;24.08;60.02;100674.75;4996756;28;20034;-83
2022/08/04 00:54:25;;;;;;;19.57;6.03;;;;;;;24.01;60.72;100676.63;5014706;28;20029;-82
2022/08/04 00:57:17;;;;;;;11.95;5.25;;;;;;;24.04;60.61;100677.06;5014374;28;20384;-81
2022/08/04 01:00:10;;;;;;;17.25;5.82;;;;;;;24.02;60.82;100683.84;4991474;28;20034;-81
2022/08/04 01:02:39;;;;;;;15.10;6.10;;;;;;;24.00;60.86;100680.47;5009025;28;20052;-82
2022/08/04 01:05:16;;;;;;;15.70;5.07;;;;;;;23.96;61.29;100681.91;5034309;28;20036;-82
2022/08/04 01:08:18;;;;;;;12.48;5.40;;;;;;;23.94;61.02;100673.06;5033389;28;20040;-82
2022/08/04 01:11:17;;;;;;;9.57;5.43;;;;;;;23.87;61.14;100669.44;5016114;28;20034;-82
2022/08/04 01:14:18;;;;;;;18.05;5.82;;;;;;;23.99;61.28;100687.00;5034031;28;20028;-82
2022/08/04 01:16:50;;;;;;;11.90;5.22;;;;;;;24.02;61.21;100684.69;5020413;28;20393;-82
2022/08/04 01:19:34;;;;;;;9.18;5.20;;;;;;;24.03;61.16;100674.53;5033665;28;20028;-82
2022/08/04 01:22:16;;;;;;;8.07;5.28;;;;;;;24.00;60.91;100666.72;5016237;28;20033;-82
2022/08/04 01:24:41;;;;;;;10.75;4.78;;;;;;;24.09;60.56;100679.19;5015800;28;20400;-83
2022/08/04 01:27:15;;;;;;;11.40;6.05;;;;;;;24.03;60.87;100671.78;5033415;28;20033;-82
2022/08/04 01:29:48;;;;;;;12.80;6.03;;;;;;;24.03;60.96;100677.28;5033961;28;20079;-83
2022/08/04 01:32:26;;;;;;;10.10;6.35;;;;;;;23.99;61.17;100678.75;5033958;28;20105;-83
2022/08/04 01:35:23;;;;;;;16.80;6.30;;;;;;;23.83;61.65;100678.09;5033271;28;20073;-82
2022/08/04 01:38:10;;;;;;;17.00;7.28;;;;;;;23.87;61.57;100669.44;5028270;28;20025;-81
2022/08/04 01:40:38;;;;;;;19.75;6.45;;;;;;;23.81;61.92;100666.50;5032966;28;20021;-82
2022/08/04 01:43:04;;;;;;;17.02;7.25;;;;;;;23.82;61.80;100672.84;5033345;28;20475;-82
2022/08/04 01:45:30;;;;;;;22.45;7.10;;;;;;;23.86;61.31;100668.59;5033161;28;20079;-82
2022/08/04 01:47:56;;;;;;;18.17;6.75;;;;;;;23.80;61.47;100662.06;5033320;28;20025;-82
2022/08/04 01:50:26;;;;;;;22.55;8.07;;;;;;;23.74;61.64;100668.38;5015300;28;20083;-82
2022/08/04 01:52:53;;;;;;;28.65;9.27;;;;;;;23.64;62.06;100659.69;4995880;28;20026;-82
2022/08/04 01:55:19;;;;;;;30.40;9.05;;;;;;;23.57;62.40;100658.84;5013682;28;20025;-82
2022/08/04 01:57:51;;;;;;;15.85;7.22;;;;;;;23.58;62.37;100654.19;5013885;28;20056;-81
2022/08/04 02:00:25;;;;;;;18.40;6.97;;;;;;;23.57;62.30;100653.38;5013551;28;20017;-82
2022/08/04 02:02:51;;;;;;;17.95;7.28;;;;;;;23.58;62.29;100645.94;5013824;28;20108;-81
2022/08/04 02:05:18;;;;;;;14.02;6.88;;;;;;;23.59;62.03;100654.00;5022311;28;20056;-81
2022/08/04 02:07:59;;;;;;;21.23;6.75;;;;;;;23.55;62.20;100660.94;5032863;28;20021;-82
2022/08/04 02:10:42;;;;;;;25.90;7.40;;;;;;;23.53;62.19;100654.81;5032694;28;20032;-82
2022/08/04 02:13:24;;;;;;;15.43;5.15;;;;;;;23.47;62.23;100641.94;5033044;28;20022;-82
2022/08/04 02:16:00;;;;;;;16.95;5.35;;;;;;;23.55;61.55;100644.47;5033686;28;20083;-82
2022/08/04 02:18:48;;;;;;;21.08;5.90;;;;;;;23.60;60.91;100647.47;5033921;28;20033;-82
2022/08/04 02:21:18;;;;;;;14.98;4.63;;;;;;;23.58;60.57;100635.81;5037187;28;20045;-81
2022/08/04 02:23:48;;;;;;;4.07;3.53;;;;;;;23.67;60.12;100647.44;5037332;28;20025;-82
2022/08/04 02:26:19;;;;;;;6.60;3.50;;;;;;;23.73;59.44;100652.94;5037550;28;20475;-81
2022/08/04 02:28:50;;;;;;;14.02;4.30;;;;;;;23.76;59.40;100647.03;5037422;28;20132;-82
2022/08/04 02:31:27;;;;;;;18.10;4.55;;;;;;;23.74;59.53;100637.31;5037048;28;20106;-82
2022/08/04 02:34:05;;;;;;;14.60;4.63;;;;;;;23.82;59.03;100657.19;5036723;28;20056;-80
2022/08/04 02:36:36;;;;;;;19.10;4.47;;;;;;;23.92;59.30;100654.03;5036520;28;20026;-81
2022/08/04 02:39:05;;;;;;;12.10;4.07;;;;;;;23.88;58.79;100649.16;5018849;28;20476;-82
2022/08/04 02:41:31;;;;;;;11.55;4.25;;;;;;;23.97;58.90;100659.75;5036766;28;20083;-81
2022/08/04 02:43:59;;;;;;;28.75;6.45;;;;;;;23.90;59.26;100641.56;5037070;28;20117;-80
2022/08/04 02:46:26;;;;;;;8.85;5.15;;;;;;;24.03;58.94;100663.53;5036419;28;20030;-81
2022/08/04 02:48:53;;;;;;;13.60;6.25;;;;;;;24.00;59.07;100663.97;5036976;28;20021;-81
2022/08/04 02:51:22;;;;;;;16.95;7.00;;;;;;;23.97;59.22;100658.91;5036005;28;20049;-81
2022/08/04 02:53:54;;;;;;;25.42;8.65;;;;;;;23.99;59.61;100663.13;5036526;28;20021;-81
2022/08/04 02:56:21;;;;;;;20.40;8.70;;;;;;;23.96;59.78;100663.53;5036546;28;20112;-82
2022/08/04 02:58:51;;;;;;;29.42;9.95;;;;;;;23.73;59.94;100641.97;5035846;28;20022;-81
2022/08/04 03:01:17;;;;;;;30.05;8.18;;;;;;;23.74;60.29;100653.78;5018338;28;20051;-81
2022/08/04 03:03:51;;;;;;;25.30;8.77;;;;;;;23.70;60.57;100658.84;5036059;28;20108;-81
2022/08/04 03:06:39;;;;;;;33.58;8.07;;;;;;;23.71;60.47;100654.22;5036801;28;20029;-81
2022/08/04 03:09:32;;;;;;;21.98;8.73;;;;;;;23.68;60.62;100652.75;5006512;28;20476;-81
2022/08/04 03:12:16;;;;;;;22.50;8.30;;;;;;;23.57;60.86;100658.00;5018667;28;20048;-83
2022/08/04 03:15:09;;;;;;;21.17;8.85;;;;;;;23.53;61.25;100652.09;5036033;28;20376;-81
2022/08/04 03:17:46;;;;;;;27.27;8.57;;;;;;;23.58;61.18;100656.94;5034862;28;20025;-81
2022/08/04 03:20:34;;;;;;;18.48;7.85;;;;;;;23.52;61.34;100664.09;5018454;28;20025;-80
2022/08/04 03:23:25;;;;;;;21.55;8.00;;;;;;;23.43;61.64;100656.28;5036448;28;20033;-82
2022/08/04 03:26:28;;;;;;;16.80;8.00;;;;;;;23.45;61.68;100666.00;5036079;28;20022;-82
2022/08/04 03:28:57;;;;;;;;;;;;;;;23.42;61.45;100671.06;5036281;28;20049;-81
2022/08/04 03:31:35;;;;;;;22.23;7.72;;;;;;;23.40;61.64;100663.03;5035020;28;19913;-82
2022/08/04 03:34:38;;;;;;;14.07;7.53;;;;;;;23.47;61.16;100668.53;5035637;28;20049;-82
2022/08/04 03:37:29;;;;;;;16.50;7.53;;;;;;;23.45;61.05;100671.50;5036091;28;20083;-82
2022/08/04 03:40:31;;;;;;;22.45;6.85;;;;;;;23.42;61.30;100660.09;4995670;28;20034;-82
2022/08/04 03:43:17;;;;;;;19.73;7.90;;;;;;;23.48;60.78;100670.25;5035693;28;20029;-80
2022/08/04 03:46:04;;;;;;;21.75;8.30;;;;;;;23.50;60.94;100668.97;5035645;28;20023;-82
2022/08/04 03:49:03;;;;;;;26.30;7.05;;;;;;;23.44;61.01;100663.47;5035346;28;20029;-82
2022/08/04 03:55:08;;;;;;;12.75;4.82;;;;;;;23.63;59.42;100677.25;5035744;28;20505;-83
2022/08/04 03:57:48;;;;;;;10.15;4.30;;;;;;;23.70;58.75;100683.56;5035122;28;20037;-82
2022/08/04 04:00:57;;;;;;;9.50;4.18;;;;;;;23.76;58.27;100676.41;5035378;28;20029;-82
2022/08/04 04:03:38;;;;;;;8.70;4.35;;;;;;;23.78;58.04;100683.41;5014181;28;20037;-84
2022/08/04 04:06:29;;;;;;;6.17;3.67;;;;;;;23.91;57.75;100682.56;5036208;28;20113;-82
2022/08/04 04:09:18;;;;;;;13.50;3.90;;;;;;;23.98;57.49;100683.41;5035477;28;20033;-81
2022/08/04 04:12:06;;;;;;;10.32;3.67;;;;;;;24.06;57.52;100679.63;5034908;28;20030;-81
2022/08/04 04:14:46;;;;;;;9.20;3.92;;;;;;;24.12;57.07;100678.81;5034851;28;20197;-81
2022/08/04 04:17:38;;;;;;;9.52;3.92;;;;;;;24.15;57.12;100672.88;5034963;28;20027;-82
2022/08/04 04:20:28;;;;;;;10.00;3.78;;;;;;;24.23;56.89;100680.91;4989814;28;20454;-81
2022/08/04 04:23:26;;;;;;;9.45;4.35;;;;;;;24.27;56.86;100668.44;5035151;28;20029;-82
2022/08/04 04:26:25;;;;;;;21.42;4.88;;;;;;;24.29;56.73;100677.31;5034438;28;20029;-81
2022/08/04 04:29:12;;;;;;;13.48;4.85;;;;;;;24.36;56.56;100679.00;4997244;28;20087;-80
2022/08/04 04:31:40;;;;;;;11.07;4.60;;;;;;;24.38;56.78;100673.28;5005422;28;20033;-81
2022/08/04 04:34:31;;;;;;;18.13;5.47;;;;;;;24.43;56.41;100673.50;5034180;28;20050;-81
2022/08/04 04:37:02;;;;;;;11.60;4.15;;;;;;;24.51;56.04;100673.25;5034605;28;20025;-81
2022/08/04 04:40:01;;;;;;;6.75;4.55;;;;;;;24.53;56.24;100676.63;5034290;28;20533;-81
2022/08/04 04:42:51;;;;;;;16.77;5.45;;;;;;;24.53;56.20;100684.03;5016495;28;20036;-80
2022/08/04 04:45:33;;;;;;;32.17;5.60;;;;;;;24.60;55.86;100671.13;5034971;28;20084;-81
2022/08/04 04:48:49;;;;;;;16.58;4.65;;;;;;;24.62;55.93;100669.00;5035259;28;20025;-81
2022/08/04 04:51:17;;;;;;;7.65;3.47;;;;;;;24.65;55.91;100669.41;4983708;28;20435;-83
2022/08/04 04:53:55;;;;;;;23.98;5.28;;;;;;;24.67;56.11;100670.06;5034247;28;20022;-84
2022/08/04 04:56:58;;;;;;;17.92;3.63;;;;;;;24.76;55.89;100671.53;5034049;28;20030;-83
2022/08/04 04:59:31;;;;;;;9.23;4.40;;;;;;;24.76;55.77;100666.00;5034265;28;20116;-84
2022/08/04 05:02:07;;;;;;;8.35;4.63;;;;;;;24.81;55.82;100674.47;5034049;28;20035;-82
2022/08/04 05:05:12;;;;;;;22.25;4.25;;;;;;;24.86;55.62;100671.91;5023267;28;20025;-81
2022/08/04 05:08:12;;;;;;;9.90;4.80;;;;;;;24.92;55.73;100665.53;4994790;28;20097;-82
2022/08/04 05:11:11;;;;;;;14.95;4.80;;;;;;;25.03;55.36;100677.81;4995043;28;20150;-81
2022/08/04 05:13:40;;;;;;;15.35;4.30;;;;;;;25.10;55.27;100675.03;4994552;28;20053;-82
2022/08/04 05:16:20;;;;;;;7.18;3.80;;;;;;;25.13;55.07;100682.84;4996160;28;20034;-82
2022/08/04 05:18:53;;;;;;;8.63;4.03;;;;;;;25.10;54.77;100681.38;5021082;28;20033;-79
2022/08/04 05:21:38;;;;;;;7.25;3.83;;;;;;;25.30;54.16;100679.38;5015506;28;20128;-81
2022/08/04 05:24:08;;;;;;;24.80;4.03;;;;;;;25.28;54.15;100678.75;5033142;28;20036;-86
2022/08/04 05:26:39;;;;;;;6.93;3.90;;;;;;;25.35;53.92;100684.25;5034126;28;20550;-83
2022/08/04 05:29:10;;;;;;;12.65;3.42;;;;;;;25.23;53.86;100685.97;5034049;28;20075;-83
2022/08/04 05:31:41;;;;;;;8.77;3.47;;;;;;;25.34;53.99;100680.63;5033609;28;20063;-82
2022/08/04 05:34:09;;;;;;;11.07;3.83;;;;;;;25.45;54.12;100690.09;5018501;28;20050;-80
2022/08/04 05:36:46;;;;;;;12.98;4.07;;;;;;;25.52;53.99;100690.94;5028686;28;20037;-84
2022/08/04 05:39:20;;;;;;;7.10;3.30;;;;;;;25.55;53.58;100673.97;4995999;28;20025;-80
2022/08/04 05:41:48;;;;;;;6.65;2.90;;;;;;;25.69;53.46;100692.09;5013052;28;20049;-79
2022/08/04 05:44:18;;;;;;;12.15;3.78;;;;;;;25.77;53.24;100685.50;5012545;28;20472;-82
2022/08/04 05:46:48;;;;;;;7.47;4.00;;;;;;;25.83;53.39;100690.97;5030098;28;20033;-85
2022/08/04 05:49:14;;;;;;;9.63;3.33;;;;;;;25.88;53.23;100690.28;5033879;28;20025;-88
2022/08/04 05:51:42;;;;;;;12.00;3.65;;;;;;;25.89;53.37;100687.31;5033869;28;20033;-87
2022/08/04 05:54:09;;;;;;;6.10;3.88;;;;;;;26.02;52.91;100688.28;5034027;28;20108;-86
2022/08/04 05:56:36;;;;;;;8.68;3.58;;;;;;;26.03;52.71;100678.91;5034616;28;20130;-87
2022/08/04 05:59:03;;;;;;;7.70;3.38;;;;;;;26.13;52.59;100691.16;5015790;28;20419;-87
2022/08/04 06:01:30;;;;;;;7.00;3.42;;;;;;;26.12;52.45;100685.84;5034150;28;20021;-87
2022/08/04 06:04:01;;;;;;;11.90;3.70;;;;;;;26.18;52.72;100685.81;5033274;28;20518;-87
2022/08/04 06:06:29;;;;;;;6.93;3.33;;;;;;;26.23;52.54;100682.41;5033441;28;20389;-83
2022/08/04 06:08:55;;;;;;;7.30;2.97;;;;;;;26.34;52.18;100689.94;5033315;28;20622;-83
2022/08/04 06:11:21;;;;;;;4.53;3.20;;;;;;;26.40;51.95;100683.50;5033646;28;20093;-83
2022/08/04 06:13:53;;;;;;;12.57;3.85;;;;;;;26.42;51.92;100678.63;5033929;28;20025;-84
2022/08/04 06:16:22;;;;;;;12.10;4.23;;;;;;;26.45;51.84;100670.72;5034243;28;20079;-83
2022/08/04 06:18:51;;;;;;;12.60;4.60;;;;;;;26.51;52.12;100683.59;5033496;28;20029;-83
2022/08/04 06:21:21;;;;;;;9.65;4.13;;;;;;;26.50;51.86;100665.38;5033453;28;20022;-83
2022/08/04 06:23:48;;;;;;;14.48;4.57;;;;;;;26.63;51.77;100674.59;5033034;28;20052;-83
2022/08/04 06:26:18;;;;;;;20.77;5.38;;;;;;;26.60;51.82;100673.16;5033533;28;20029;-82
2022/08/04 06:28:51;;;;;;;9.45;3.88;;;;;;;26.70;51.83;100675.34;5033702;28;20029;-84
2022/08/04 06:31:31;;;;;;;12.52;3.67;;;;;;;26.87;51.85;100670.97;5033766;28;20026;-83
2022/08/04 06:34:02;;;;;;;9.32;3.05;;;;;;;26.95;51.47;100663.22;5033025;28;20053;-84
2022/08/04 06:36:30;;;;;;;10.52;3.92;;;;;;;26.97;51.32;100663.81;5033392;28;20037;-82
2022/08/04 06:38:58;;;;;;;11.50;5.90;;;;;;;27.05;51.71;100662.66;5033617;28;20055;-83
2022/08/04 06:41:24;;;;;;;8.95;3.72;;;;;;;27.15;51.36;100659.38;5033406;28;20033;-83
2022/08/04 06:43:51;;;;;;;13.88;7.60;;;;;;;27.20;50.89;100652.06;5033298;28;20108;-83
2022/08/04 06:46:17;;;;;;;4.30;3.13;;;;;;;27.31;50.88;100656.78;5033550;28;20021;-86
2022/08/04 06:48:45;;;;;;;16.15;3.63;;;;;;;27.40;50.54;100654.56;5033139;28;20033;-84
2022/08/04 06:51:13;;;;;;;7.03;4.07;;;;;;;27.45;50.73;100663.88;5012628;28;20382;-81
2022/08/04 06:53:39;;;;;;;16.15;4.15;;;;;;;27.43;50.42;100660.47;5011828;28;20088;-80
2022/08/04 06:56:05;;;;;;;6.45;3.70;;;;;;;27.60;49.89;100663.44;5010861;28;20034;-84
2022/08/04 06:58:31;;;;;;;12.60;4.25;;;;;;;27.58;49.59;100657.31;5011208;28;20455;-84
2022/08/04 07:01:00;;;;;;;6.20;3.70;;;;;;;27.66;49.50;100658.88;5011844;28;20021;-86
2022/08/04 07:03:27;;;;;;;7.85;4.03;;;;;;;27.74;49.72;100678.72;4994976;28;20396;-85
2022/08/04 07:05:53;;;;;;;10.25;4.32;;;;;;;27.78;49.30;100674.41;5013880;28;20100;-82
2022/08/04 07:08:20;;;;;;;10.65;4.28;;;;;;;27.81;49.27;100668.41;4998689;28;20508;-83
2022/08/04 07:10:46;;;;;;;10.80;3.28;;;;;;;27.81;49.10;100657.38;5016911;28;20053;-86
2022/08/04 07:13:12;;;;;;;5.30;3.22;;;;;;;27.89;48.93;100659.78;4998795;28;20496;-82
2022/08/04 07:15:40;;;;;;;7.13;3.97;;;;;;;27.95;48.74;100653.28;5016055;28;20033;-83
2022/08/04 07:18:06;;;;;;;8.25;4.03;;;;;;;28.03;48.29;100666.78;5015894;28;20026;-85
2022/08/04 07:20:32;;;;;;;9.40;3.63;;;;;;;28.09;48.14;100671.41;5015437;28;20160;-81
2022/08/04 07:23:00;;;;;;;5.90;4.28;;;;;;;28.13;48.15;100665.41;5016386;28;20022;-85
2022/08/04 07:25:26;;;;;;;9.45;4.13;;;;;;;28.20;47.99;100666.09;5015857;28;20100;-84
2022/08/04 07:27:51;;;;;;;8.85;3.55;;;;;;;28.17;47.58;100650.00;4998269;28;20061;-84
2022/08/04 07:30:18;;;;;;;5.07;3.50;;;;;;;28.31;47.82;100663.38;5015565;28;20037;-79
2022/08/04 07:32:45;;;;;;;5.85;3.97;;;;;;;28.38;47.12;100666.00;5015636;28;20026;-80
2022/08/04 07:35:11;;;;;;;19.20;5.68;;;;;;;28.45;47.11;100664.81;4979122;28;20531;-84
2022/08/04 07:37:37;;;;;;;8.18;4.07;;;;;;;28.52;46.72;100664.69;4996774;28;20406;-84
2022/08/04 07:40:04;;;;;;;11.50;3.70;;;;;;;28.58;47.20;100663.72;4997738;28;20112;-82
2022/08/04 07:42:29;;;;;;;34.83;6.07;;;;;;;28.61;46.71;100654.94;5000641;28;20105;-82
2022/08/04 07:44:55;;;;;;;18.20;4.10;;;;;;;28.70;46.65;100650.75;4996536;28;20105;-82
2022/08/04 07:47:21;;;;;;;9.10;4.45;;;;;;;28.78;46.06;100658.66;4995404;28;20014;-82
2022/08/04 07:49:46;;;;;;;7.90;3.58;;;;;;;28.80;46.50;100650.13;4995063;28;20510;-82
2022/08/04 07:52:13;;;;;;;9.57;3.60;;;;;;;28.94;45.97;100652.38;4995452;28;20028;-81
2022/08/04 07:54:40;;;;;;;13.43;4.10;;;;;;;29.05;45.58;100653.44;4996097;28;20489;-84
2022/08/04 07:57:05;;;;;;;9.82;3.95;;;;;;;29.06;45.75;100644.03;4995837;28;20022;-83
2022/08/04 07:59:32;;;;;;;7.70;3.67;;;;;;;29.22;45.38;100659.03;4996501;28;20023;-86
2022/08/04 08:02:01;;;;;;;11.07;3.40;;;;;;;29.31;45.45;100652.91;4996111;28;20053;-83
2022/08/04 08:04:28;;;;;;;5.53;3.28;;;;;;;29.45;44.95;100651.50;4995259;28;20037;-83
2022/08/04 08:06:55;;;;;;;8.02;3.72;;;;;;;29.63;44.17;100661.56;4996377;28;20030;-80
2022/08/04 08:09:21;;;;;;;16.58;3.47;;;;;;;29.56;44.10;100641.47;4995788;28;20102;-82
2022/08/04 08:11:49;;;;;;;15.75;3.88;;;;;;;29.65;44.50;100653.84;4994558;28;20030;-82
2022/08/04 08:14:16;;;;;;;11.85;3.67;;;;;;;29.69;44.34;100660.56;4994281;28;20026;-78
2022/08/04 08:16:41;;;;;;;9.25;3.80;;;;;;;29.62;43.83;100633.00;4994099;28;20442;-79
2022/08/04 08:19:08;;;;;;;8.98;4.28;;;;;;;29.69;44.01;100653.06;4995105;28;20028;-81
2022/08/04 08:21:34;;;;;;;48.03;25.77;;;;;;;29.66;43.74;100650.78;4995047;28;20018;-79
2022/08/04 08:24:09;;;;;;;19.23;4.28;;;;;;;29.59;43.43;100652.91;4997368;28;20065;-83
2022/08/04 08:26:35;;;;;;;19.88;4.43;;;;;;;29.51;43.91;100658.00;4983166;28;20030;-81
2022/08/04 08:29:02;;;;;;;12.05;3.72;;;;;;;29.42;43.85;100649.22;4998349;28;20025;-84
2022/08/04 08:31:28;;;;;;;7.68;4.53;;;;;;;29.39;43.88;100646.94;4977482;28;20022;-79
2022/08/04 08:33:53;;;;;;;12.27;4.28;;;;;;;29.44;44.19;100641.53;5005175;28;20065;-81
2022/08/04 08:36:33;;;;;;;11.18;4.43;;;;;;;29.57;44.03;100654.25;5015498;28;20034;-82
2022/08/04 08:39:10;;;;;;;12.73;4.63;;;;;;;29.61;43.58;100647.09;5015469;28;20384;-83
2022/08/04 08:42:09;;;;;;;11.27;4.18;;;;;;;29.78;42.64;100652.69;5016270;28;20558;-81
2022/08/04 08:44:40;;;;;;;8.30;3.95;;;;;;;29.94;43.08;100649.94;5014997;28;20033;-81
2022/08/04 08:47:34;;;;;;;13.05;4.20;;;;;;;30.03;42.47;100655.94;5014426;28;20168;-81
2022/08/04 08:50:17;;;;;;;14.90;4.78;;;;;;;29.97;42.97;100641.13;5014844;28;20026;-81
2022/08/04 08:52:54;;;;;;;10.88;4.70;;;;;;;30.07;42.91;100655.16;5015158;28;20026;-82
2022/08/04 08:55:43;;;;;;;11.18;4.18;;;;;;;30.12;43.32;100654.44;5018516;28;20360;-87
2022/08/04 08:58:14;;;;;;;8.73;4.18;;;;;;;30.19;43.10;100653.16;5005395;28;20116;-83
2022/08/04 09:01:15;;;;;;;9.80;3.80;;;;;;;30.25;42.07;100648.50;5009137;28;20034;-82
2022/08/04 09:03:47;;;;;;;6.63;3.78;;;;;;;30.39;41.72;100643.50;4974579;28;20026;-83
2022/08/04 09:06:43;;;;;;;14.93;4.37;;;;;;;30.62;41.47;100644.13;4975223;28;20496;-83
2022/08/04 09:09:48;;;;;;;6.95;2.97;;;;;;;30.74;39.92;100642.06;4974585;28;20053;-79
2022/08/04 09:12:27;;;;;;;9.32;3.72;;;;;;;30.68;40.53;100636.69;4956824;28;20055;-79
2022/08/04 09:15:27;;;;;;;23.63;12.20;;;;;;;30.74;40.61;100633.72;4979903;28;20040;-86
2022/08/04 09:18:11;;;;;;;10.43;3.33;;;;;;;30.82;39.91;100621.34;4977791;28;20038;-86
2022/08/04 09:20:45;;;;;;;7.50;3.25;;;;;;;30.94;40.09;100612.88;4994878;28;20540;-79
2022/08/04 09:23:14;;;;;;;5.80;3.75;;;;;;;31.14;40.02;100625.13;4994151;28;20528;-82
2022/08/04 09:26:19;;;;;;;7.88;2.95;;;;;;;31.22;39.57;100626.59;4977357;28;20038;-83
2022/08/04 09:28:57;;;;;;;12.75;4.65;;;;;;;31.03;39.94;100623.31;4974056;28;20045;-82
2022/08/04 09:31:29;;;;;;;8.55;3.67;;;;;;;30.89;40.93;100621.97;5012042;28;20029;-81
2022/08/04 09:34:22;;;;;;;6.28;4.15;;;;;;;30.98;40.70;100616.84;5013205;28;20056;-81
2022/08/04 09:37:29;;;;;;;6.38;3.30;;;;;;;31.14;39.20;100630.66;5012033;28;20114;-85
2022/08/04 09:40:04;;;;;;;11.32;4.07;;;;;;;30.99;39.58;100627.72;5011799;28;20018;-79
2022/08/04 09:42:40;;;;;;;8.48;3.10;;;;;;;30.97;39.69;100635.47;5013901;28;20050;-80
2022/08/04 09:45:16;;;;;;;7.20;4.25;;;;;;;30.98;39.95;100626.00;5016485;28;20049;-82
2022/08/04 09:47:58;;;;;;;16.73;4.65;;;;;;;31.03;39.76;100640.00;5013002;28;20112;-86
2022/08/04 09:50:38;;;;;;;21.65;6.22;;;;;;;30.95;39.44;100617.34;5013174;28;20096;-80
2022/08/04 09:53:21;;;;;;;23.88;5.75;;;;;;;30.95;39.68;100620.97;5013160;28;20034;-81
2022/08/04 09:55:56;;;;;;;12.82;4.25;;;;;;;30.98;39.64;100626.00;5012812;28;20033;-81
2022/08/04 09:58:24;;;;;;;22.90;4.97;;;;;;;31.13;40.06;100625.38;5012423;28;20030;-81
2022/08/04 10:00:59;;;;;;;12.98;3.88;;;;;;;31.22;39.62;100604.38;5012638;28;20025;-83
2022/08/04 10:03:30;;;;;;;16.13;4.70;;;;;;;31.38;38.84;100630.38;5012335;28;20025;-81
2022/08/04 10:06:31;;;;;;;9.77;6.35;;;;;;;31.15;41.57;100637.91;5012853;28;20030;-81
2022/08/04 10:09:33;;;;;;;12.73;4.72;;;;;;;30.87;44.65;100640.84;5012122;28;20055;-80
2022/08/04 10:12:56;;;;;;;13.40;10.15;;;;;;;30.55;46.56;100632.34;5011863;28;20049;-78
2022/08/04 10:15:27;;;;;;;;;;;;;;;30.56;46.91;100638.75;4951271;29;20059;-80
2022/08/04 10:18:10;;;;;;;15.40;4.22;;;;;;;30.22;48.42;100638.75;4950877;28;19910;-80
2022/08/04 10:20:41;;;;;;;12.75;5.35;;;;;;;30.08;49.50;100631.03;4995900;28;20471;-82
2022/08/04 10:23:33;;;;;;;15.48;4.32;;;;;;;30.04;49.55;100619.59;5011210;28;20021;-80
2022/08/04 10:26:29;;;;;;;18.60;4.70;;;;;;;30.05;50.14;100612.97;5013754;28;20041;-82
2022/08/04 10:29:02;;;;;;;13.38;4.85;;;;;;;30.22;50.16;100630.44;4977259;28;20030;-82
2022/08/04 10:31:42;;;;;;;15.25;4.45;;;;;;;30.10;50.27;100629.69;4972884;28;20031;-78
2022/08/04 10:34:17;;;;;;;9.15;3.92;;;;;;;30.03;50.55;100633.75;4984651;28;20046;-85
2022/08/04 10:37:18;;;;;;;20.30;5.28;;;;;;;29.89;51.42;100619.34;4993020;28;20389;-81
2022/08/04 10:42:59;;;;;;;10.80;4.65;;;;;;;29.96;55.13;100633.06;4997565;28;20037;-81
2022/08/04 10:45:33;;;;;;;19.40;4.75;;;;;;;30.16;54.15;100620.34;4997267;28;20469;-88
2022/08/04 10:48:31;;;;;;;9.13;4.05;;;;;;;30.09;54.58;100616.91;4997157;28;20050;-83
2022/08/04 10:51:20;;;;;;;15.15;4.68;;;;;;;30.00;55.15;100631.47;4996804;28;20053;-82
2022/08/04 10:53:54;;;;;;;10.80;5.22;;;;;;;29.90;55.68;100634.06;4996555;28;20018;-82
2022/08/04 10:56:31;;;;;;;12.77;4.60;;;;;;;29.99;55.43;100633.41;4996571;28;20033;-82
2022/08/04 10:59:03;;;;;;;17.42;4.90;;;;;;;29.96;54.78;100631.13;4996387;28;20029;-82
2022/08/04 11:01:40;;;;;;;13.10;5.90;;;;;;;29.74;55.36;100641.25;4996148;28;20097;-82
2022/08/04 11:04:26;;;;;;;19.08;5.40;;;;;;;29.45;56.37;100636.81;4995070;28;20127;-83
2022/08/04 11:06:52;;;;;;;18.10;5.28;;;;;;;29.28;56.87;100613.75;4995303;28;20062;-82
2022/08/04 11:09:20;;;;;;;16.60;5.32;;;;;;;29.54;56.67;100615.94;4996362;28;20018;-81
2022/08/04 11:12:17;;;;;;;20.55;5.95;;;;;;;29.56;56.41;100606.28;5006500;28;20064;-84
2022/08/04 11:14:57;;;;;;;12.65;5.38;;;;;;;29.92;55.92;100623.56;5014057;28;20120;-82
2022/08/04 11:17:32;;;;;;;14.15;5.78;;;;;;;29.87;55.62;100627.09;5000130;28;20065;-84
2022/08/04 11:20:15;;;;;;;15.07;5.15;;;;;;;29.99;55.16;100622.31;5016808;28;20496;-84
2022/08/04 11:22:53;;;;;;;11.32;5.43;;;;;;;30.20;54.71;100617.91;5009355;28;20481;-79
2022/08/04 11:25:24;;;;;;;13.95;5.05;;;;;;;30.27;53.72;100617.75;5007346;28;20025;-76
2022/08/04 11:28:02;;;;;;;12.02;5.28;;;;;;;30.44;53.70;100618.59;5013025;28;20072;-79
2022/08/04 11:31:01;;;;;;;5.82;4.18;;;;;;;30.56;54.22;100617.38;5013799;28;20143;-78
2022/08/04 11:33:39;;;;;;;10.95;5.43;;;;;;;30.44;54.26;100619.44;5013734;28;20427;-78
2022/08/04 11:36:14;;;;;;;11.38;4.10;;;;;;;30.52;54.74;100623.72;5013769;28;20038;-79
2022/08/04 11:38:54;;;;;;;6.85;3.92;;;;;;;30.29;55.43;100615.53;5012933;28;20073;-80
2022/08/04 11:41:37;;;;;;;15.50;4.68;;;;;;;30.20;55.16;100623.47;5012568;28;20033;-78
2022/08/04 11:44:04;;;;;;;10.88;4.88;;;;;;;29.95;55.86;100615.56;5011750;28;20092;-78
2022/08/04 11:46:44;;;;;;;35.75;5.15;;;;;;;29.84;56.25;100630.38;5012031;28;20485;-78
2022/08/04 11:49:23;;;;;;;8.80;4.97;;;;;;;29.69;56.87;100627.28;5012116;28;20026;-79
2022/08/04 11:51:50;;;;;;;15.52;5.80;;;;;;;29.71;56.83;100619.56;5012017;28;20127;-79
2022/08/04 11:54:16;;;;;;;13.68;4.95;;;;;;;29.54;57.57;100613.16;5013574;28;20026;-79
2022/08/04 11:56:42;;;;;;;9.02;4.68;;;;;;;29.86;57.39;100625.41;5015406;28;20033;-79
2022/08/04 11:59:07;;;;;;;8.35;4.75;;;;;;;30.07;56.01;100598.84;5016078;28;20034;-82
2022/08/04 12:01:46;;;;;;;11.70;5.50;;;;;;;30.33;55.67;100627.81;5015581;28;20030;-81
2022/08/04 12:04:49;;;;;;;10.93;5.25;;;;;;;30.60;54.42;100626.03;5013699;28;20121;-78
2022/08/04 12:07:40;;;;;;;;;;;;;;;30.62;53.98;100616.34;4975123;28;20038;-81
2022/08/04 12:10:25;;;;;;;10.55;5.10;;;;;;;30.43;53.78;100630.78;5012787;28;19914;-80
2022/08/04 12:13:21;;;;;;;9.30;4.25;;;;;;;30.52;53.79;100627.31;5014980;28;20036;-81